sensor_id;sensor_type;location;lat;lon;timestamp;temperature;humidity
12977;DHT22;6553;48.412;9.514;2023-03-04T00:02:02;19.50;48.40
12977;DHT22;6553;48.412;9.514;2023-03-04T00:04:28;19.40;48.30
12977;DHT22;6553;48.412;9.514;2023-03-04T00:06:54;19.40;48.30
12977;DHT22;6553;48.412;9.514;2023-03-04T00:09:20;19.40;48.30
12977;DHT22;6553;48.412;9.514;2023-03-04T00:11:45;19.40;48.20
12977;DHT22;6553;48.412;9.514;2023-03-04T00:14:11;19.40;48.20
12977;DHT22;6553;48.412;9.514;2023-03-04T00:16:37;19.40;48.20
12977;DHT22;6553;48.412;9.514;2023-03-04T00:19:03;19.40;48.20
12977;DHT22;6553;48.412;9.514;2023-03-04T00:21:29;19.40;48.20
12977;DHT22;6553;48.412;9.514;2023-03-04T00:23:55;19.40;48.20
12977;DHT22;6553;48.412;9.514;2023-03-04T00:26:21;19.40;48.20
12977;DHT22;6553;48.412;9.514;2023-03-04T00:28:47;19.40;48.20
12977;DHT22;6553;48.412;9.514;2023-03-04T00:31:13;19.40;48.20
12977;DHT22;6553;48.412;9.514;2023-03-04T00:33:38;19.40;48.20
12977;DHT22;6553;48.412;9.514;2023-03-04T00:36:05;19.40;48.20
12977;DHT22;6553;48.412;9.514;2023-03-04T00:38:31;19.40;48.20
12977;DHT22;6553;48.412;9.514;2023-03-04T00:40:57;19.40;48.20
12977;DHT22;6553;48.412;9.514;2023-03-04T00:43:23;19.40;48.20
12977;DHT22;6553;48.412;9.514;2023-03-04T00:45:49;19.40;48.20
12977;DHT22;6553;48.412;9.514;2023-03-04T00:48:15;19.40;48.20
12977;DHT22;6553;48.412;9.514;2023-03-04T00:50:41;19.40;48.20
12977;DHT22;6553;48.412;9.514;2023-03-04T00:53:08;19.30;48.10
12977;DHT22;6553;48.412;9.514;2023-03-04T00:55:35;19.40;48.20
12977;DHT22;6553;48.412;9.514;2023-03-04T00:58:01;19.30;48.10
12977;DHT22;6553;48.412;9.514;2023-03-04T01:00:27;19.30;48.00
12977;DHT22;6553;48.412;9.514;2023-03-04T01:02:54;19.30;48.10
12977;DHT22;6553;48.412;9.514;2023-03-04T01:05:19;19.40;48.20
12977;DHT22;6553;48.412;9.514;2023-03-04T01:07:45;19.40;48.10
12977;DHT22;6553;48.412;9.514;2023-03-04T01:10:13;19.30;48.00
12977;DHT22;6553;48.412;9.514;2023-03-04T01:12:40;19.30;48.00
12977;DHT22;6553;48.412;9.514;2023-03-04T01:15:09;19.30;48.00
12977;DHT22;6553;48.412;9.514;2023-03-04T01:17:38;19.40;48.10
12977;DHT22;6553;48.412;9.514;2023-03-04T01:20:05;19.30;48.00
12977;DHT22;6553;48.412;9.514;2023-03-04T01:22:32;19.30;48.00
12977;DHT22;6553;48.412;9.514;2023-03-04T01:24:57;19.30;48.00
12977;DHT22;6553;48.412;9.514;2023-03-04T01:27:24;19.40;48.10
12977;DHT22;6553;48.412;9.514;2023-03-04T01:29:50;19.40;48.10
12977;DHT22;6553;48.412;9.514;2023-03-04T01:32:16;19.40;48.10
12977;DHT22;6553;48.412;9.514;2023-03-04T01:34:42;19.30;48.00
12977;DHT22;6553;48.412;9.514;2023-03-04T01:37:08;19.30;48.00
12977;DHT22;6553;48.412;9.514;2023-03-04T01:39:35;19.40;48.10
12977;DHT22;6553;48.412;9.514;2023-03-04T01:42:01;19.30;48.00
12977;DHT22;6553;48.412;9.514;2023-03-04T01:44:27;19.30;48.00
12977;DHT22;6553;48.412;9.514;2023-03-04T01:46:54;19.30;48.00
12977;DHT22;6553;48.412;9.514;2023-03-04T01:49:23;19.30;47.90
12977;DHT22;6553;48.412;9.514;2023-03-04T01:51:52;19.30;48.00
12977;DHT22;6553;48.412;9.514;2023-03-04T01:54:21;19.30;47.90
12977;DHT22;6553;48.412;9.514;2023-03-04T01:56:49;19.30;47.90
12977;DHT22;6553;48.412;9.514;2023-03-04T02:01:48;19.30;47.90
12977;DHT22;6553;48.412;9.514;2023-03-04T02:04:21;19.30;47.90
12977;DHT22;6553;48.412;9.514;2023-03-04T02:06:50;19.30;47.90
12977;DHT22;6553;48.412;9.514;2023-03-04T02:09:17;19.30;47.90
12977;DHT22;6553;48.412;9.514;2023-03-04T02:11:45;19.30;47.90
12977;DHT22;6553;48.412;9.514;2023-03-04T02:14:12;19.30;47.90
12977;DHT22;6553;48.412;9.514;2023-03-04T02:16:40;19.30;47.90
12977;DHT22;6553;48.412;9.514;2023-03-04T02:19:13;19.30;47.90
12977;DHT22;6553;48.412;9.514;2023-03-04T02:21:48;19.30;48.50
12977;DHT22;6553;48.412;9.514;2023-03-04T02:24:51;19.30;47.90
12977;DHT22;6553;48.412;9.514;2023-03-04T02:27:22;19.30;47.80
12977;DHT22;6553;48.412;9.514;2023-03-04T02:29:48;19.30;47.80
12977;DHT22;6553;48.412;9.514;2023-03-04T02:32:15;19.20;47.70
12977;DHT22;6553;48.412;9.514;2023-03-04T02:34:46;19.30;47.80
12977;DHT22;6553;48.412;9.514;2023-03-04T02:37:14;19.30;47.80
12977;DHT22;6553;48.412;9.514;2023-03-04T02:39:44;19.30;47.80
12977;DHT22;6553;48.412;9.514;2023-03-04T02:42:12;19.30;47.80
12977;DHT22;6553;48.412;9.514;2023-03-04T02:44:42;19.30;47.80
12977;DHT22;6553;48.412;9.514;2023-03-04T02:47:14;19.30;47.80
12977;DHT22;6553;48.412;9.514;2023-03-04T02:49:44;19.20;47.70
12977;DHT22;6553;48.412;9.514;2023-03-04T02:52:19;19.30;47.80
12977;DHT22;6553;48.412;9.514;2023-03-04T02:54:46;19.30;47.80
12977;DHT22;6553;48.412;9.514;2023-03-04T02:57:13;19.20;47.70
12977;DHT22;6553;48.412;9.514;2023-03-04T02:59:42;19.20;47.60
12977;DHT22;6553;48.412;9.514;2023-03-04T03:02:13;19.30;47.70
12977;DHT22;6553;48.412;9.514;2023-03-04T03:04:40;19.30;47.70
12977;DHT22;6553;48.412;9.514;2023-03-04T03:07:09;19.20;47.60
12977;DHT22;6553;48.412;9.514;2023-03-04T03:09:35;19.20;47.60
12977;DHT22;6553;48.412;9.514;2023-03-04T03:12:01;19.30;47.70
12977;DHT22;6553;48.412;9.514;2023-03-04T03:14:29;19.30;47.70
12977;DHT22;6553;48.412;9.514;2023-03-04T03:16:54;19.20;47.50
12977;DHT22;6553;48.412;9.514;2023-03-04T03:19:20;19.30;47.70
12977;DHT22;6553;48.412;9.514;2023-03-04T03:21:46;19.20;47.60
12977;DHT22;6553;48.412;9.514;2023-03-04T03:24:12;19.20;47.60
12977;DHT22;6553;48.412;9.514;2023-03-04T03:26:38;19.20;47.60
12977;DHT22;6553;48.412;9.514;2023-03-04T03:29:04;19.20;47.50
12977;DHT22;6553;48.412;9.514;2023-03-04T03:31:30;19.30;47.60
12977;DHT22;6553;48.412;9.514;2023-03-04T03:33:56;19.20;47.50
12977;DHT22;6553;48.412;9.514;2023-03-04T03:36:22;19.20;47.60
12977;DHT22;6553;48.412;9.514;2023-03-04T03:38:47;19.20;47.60
12977;DHT22;6553;48.412;9.514;2023-03-04T03:41:13;19.20;47.50
12977;DHT22;6553;48.412;9.514;2023-03-04T03:43:39;19.20;48.10
12977;DHT22;6553;48.412;9.514;2023-03-04T03:46:05;19.20;47.50
12977;DHT22;6553;48.412;9.514;2023-03-04T03:48:30;19.20;47.50
12977;DHT22;6553;48.412;9.514;2023-03-04T03:50:56;19.20;47.50
12977;DHT22;6553;48.412;9.514;2023-03-04T03:53:22;19.20;47.50
12977;DHT22;6553;48.412;9.514;2023-03-04T03:55:48;19.20;47.50
12977;DHT22;6553;48.412;9.514;2023-03-04T03:58:14;19.20;47.50
12977;DHT22;6553;48.412;9.514;2023-03-04T04:00:39;19.20;47.50
12977;DHT22;6553;48.412;9.514;2023-03-04T04:03:05;19.20;47.50
12977;DHT22;6553;48.412;9.514;2023-03-04T04:05:31;19.10;47.40
12977;DHT22;6553;48.412;9.514;2023-03-04T04:07:57;19.20;47.50
12977;DHT22;6553;48.412;9.514;2023-03-04T04:10:23;19.20;47.50
12977;DHT22;6553;48.412;9.514;2023-03-04T04:12:49;19.20;47.50
12977;DHT22;6553;48.412;9.514;2023-03-04T04:15:14;19.20;47.50
12977;DHT22;6553;48.412;9.514;2023-03-04T04:17:40;19.20;47.50
12977;DHT22;6553;48.412;9.514;2023-03-04T04:20:07;19.20;47.50
12977;DHT22;6553;48.412;9.514;2023-03-04T04:22:34;19.20;47.40
12977;DHT22;6553;48.412;9.514;2023-03-04T04:25:00;19.20;47.50
12977;DHT22;6553;48.412;9.514;2023-03-04T04:27:26;19.20;47.50
12977;DHT22;6553;48.412;9.514;2023-03-04T04:29:51;19.20;47.50
12977;DHT22;6553;48.412;9.514;2023-03-04T04:32:17;19.10;47.40
12977;DHT22;6553;48.412;9.514;2023-03-04T04:34:43;19.10;47.40
12977;DHT22;6553;48.412;9.514;2023-03-04T04:37:09;19.20;47.40
12977;DHT22;6553;48.412;9.514;2023-03-04T04:39:35;19.20;47.50
12977;DHT22;6553;48.412;9.514;2023-03-04T04:42:00;19.10;47.40
12977;DHT22;6553;48.412;9.514;2023-03-04T04:44:26;19.10;47.40
12977;DHT22;6553;48.412;9.514;2023-03-04T04:46:52;19.10;47.40
12977;DHT22;6553;48.412;9.514;2023-03-04T04:49:18;19.10;47.40
12977;DHT22;6553;48.412;9.514;2023-03-04T04:51:44;19.10;47.40
12977;DHT22;6553;48.412;9.514;2023-03-04T04:54:10;19.10;47.40
12977;DHT22;6553;48.412;9.514;2023-03-04T04:56:38;19.10;47.30
12977;DHT22;6553;48.412;9.514;2023-03-04T04:59:05;19.20;47.40
12977;DHT22;6553;48.412;9.514;2023-03-04T05:01:33;19.10;47.20
12977;DHT22;6553;48.412;9.514;2023-03-04T05:03:59;19.10;47.20
12977;DHT22;6553;48.412;9.514;2023-03-04T05:06:26;19.10;47.20
12977;DHT22;6553;48.412;9.514;2023-03-04T05:08:52;19.10;47.20
12977;DHT22;6553;48.412;9.514;2023-03-04T05:11:19;19.10;47.20
12977;DHT22;6553;48.412;9.514;2023-03-04T05:13:46;19.10;47.30
12977;DHT22;6553;48.412;9.514;2023-03-04T05:16:14;19.10;47.20
12977;DHT22;6553;48.412;9.514;2023-03-04T05:18:40;19.10;47.20
12977;DHT22;6553;48.412;9.514;2023-03-04T05:21:07;19.10;47.20
12977;DHT22;6553;48.412;9.514;2023-03-04T05:23:35;19.10;47.20
12977;DHT22;6553;48.412;9.514;2023-03-04T05:26:04;19.10;47.20
12977;DHT22;6553;48.412;9.514;2023-03-04T05:28:32;19.10;47.20
12977;DHT22;6553;48.412;9.514;2023-03-04T05:30:58;19.10;47.20
12977;DHT22;6553;48.412;9.514;2023-03-04T05:33:24;19.10;47.20
12977;DHT22;6553;48.412;9.514;2023-03-04T05:35:50;19.10;47.20
12977;DHT22;6553;48.412;9.514;2023-03-04T05:38:18;19.10;47.20
12977;DHT22;6553;48.412;9.514;2023-03-04T05:40:45;19.10;47.10
12977;DHT22;6553;48.412;9.514;2023-03-04T05:43:12;19.10;47.10
12977;DHT22;6553;48.412;9.514;2023-03-04T05:45:38;19.10;47.10
12977;DHT22;6553;48.412;9.514;2023-03-04T05:48:05;19.10;47.10
12977;DHT22;6553;48.412;9.514;2023-03-04T05:50:32;19.10;47.20
12977;DHT22;6553;48.412;9.514;2023-03-04T05:52:59;19.10;47.10
12977;DHT22;6553;48.412;9.514;2023-03-04T05:55:25;19.10;47.00
12977;DHT22;6553;48.412;9.514;2023-03-04T05:57:53;19.10;47.00
12977;DHT22;6553;48.412;9.514;2023-03-04T06:00:19;19.00;46.90
12977;DHT22;6553;48.412;9.514;2023-03-04T06:02:45;19.10;47.00
12977;DHT22;6553;48.412;9.514;2023-03-04T06:05:12;19.00;47.00
12977;DHT22;6553;48.412;9.514;2023-03-04T06:07:40;19.10;47.10
12977;DHT22;6553;48.412;9.514;2023-03-04T06:10:11;19.10;47.00
12977;DHT22;6553;48.412;9.514;2023-03-04T06:12:39;19.00;46.90
12977;DHT22;6553;48.412;9.514;2023-03-04T06:15:06;19.00;46.90
12977;DHT22;6553;48.412;9.514;2023-03-04T06:17:34;19.10;47.10
12977;DHT22;6553;48.412;9.514;2023-03-04T06:20:00;19.10;47.10
12977;DHT22;6553;48.412;9.514;2023-03-04T06:22:26;19.00;47.00
12977;DHT22;6553;48.412;9.514;2023-03-04T06:24:52;19.10;47.10
12977;DHT22;6553;48.412;9.514;2023-03-04T06:27:17;19.10;47.10
12977;DHT22;6553;48.412;9.514;2023-03-04T06:29:43;19.00;47.00
12977;DHT22;6553;48.412;9.514;2023-03-04T06:32:09;19.00;47.00
12977;DHT22;6553;48.412;9.514;2023-03-04T06:34:35;19.10;47.00
12977;DHT22;6553;48.412;9.514;2023-03-04T06:37:01;19.10;47.00
12977;DHT22;6553;48.412;9.514;2023-03-04T06:39:27;19.00;46.90
12977;DHT22;6553;48.412;9.514;2023-03-04T06:41:53;19.10;47.00
12977;DHT22;6553;48.412;9.514;2023-03-04T06:44:19;19.10;47.00
12977;DHT22;6553;48.412;9.514;2023-03-04T06:46:44;19.00;46.90
12977;DHT22;6553;48.412;9.514;2023-03-04T06:49:10;19.00;46.90
12977;DHT22;6553;48.412;9.514;2023-03-04T06:51:36;19.00;46.80
12977;DHT22;6553;48.412;9.514;2023-03-04T06:54:02;19.00;46.90
12977;DHT22;6553;48.412;9.514;2023-03-04T06:56:28;19.00;46.80
12977;DHT22;6553;48.412;9.514;2023-03-04T06:58:54;19.00;46.90
12977;DHT22;6553;48.412;9.514;2023-03-04T07:01:22;19.00;46.80
12977;DHT22;6553;48.412;9.514;2023-03-04T07:03:52;19.00;46.90
12977;DHT22;6553;48.412;9.514;2023-03-04T07:06:21;19.00;46.80
12977;DHT22;6553;48.412;9.514;2023-03-04T07:08:50;19.00;46.90
12977;DHT22;6553;48.412;9.514;2023-03-04T07:11:19;19.00;46.90
12977;DHT22;6553;48.412;9.514;2023-03-04T07:13:46;19.00;46.90
12977;DHT22;6553;48.412;9.514;2023-03-04T07:16:15;19.00;46.80
12977;DHT22;6553;48.412;9.514;2023-03-04T07:18:43;19.10;46.90
12977;DHT22;6553;48.412;9.514;2023-03-04T07:21:10;19.10;46.90
12977;DHT22;6553;48.412;9.514;2023-03-04T07:23:36;19.10;46.90
12977;DHT22;6553;48.412;9.514;2023-03-04T07:26:04;19.10;46.90
12977;DHT22;6553;48.412;9.514;2023-03-04T07:28:30;19.10;46.90
12977;DHT22;6553;48.412;9.514;2023-03-04T07:30:56;19.10;46.80
12977;DHT22;6553;48.412;9.514;2023-03-04T07:33:21;19.00;46.80
12977;DHT22;6553;48.412;9.514;2023-03-04T07:35:47;19.10;46.90
12977;DHT22;6553;48.412;9.514;2023-03-04T07:38:13;19.00;46.80
12977;DHT22;6553;48.412;9.514;2023-03-04T07:40:39;19.10;46.90
12977;DHT22;6553;48.412;9.514;2023-03-04T07:43:04;19.10;47.00
12977;DHT22;6553;48.412;9.514;2023-03-04T07:45:30;19.10;46.90
12977;DHT22;6553;48.412;9.514;2023-03-04T07:47:59;19.00;46.90
12977;DHT22;6553;48.412;9.514;2023-03-04T07:50:25;19.10;47.00
12977;DHT22;6553;48.412;9.514;2023-03-04T07:52:51;19.10;47.00
12977;DHT22;6553;48.412;9.514;2023-03-04T07:55:17;19.10;47.10
12977;DHT22;6553;48.412;9.514;2023-03-04T07:57:45;19.00;46.90
12977;DHT22;6553;48.412;9.514;2023-03-04T08:00:14;19.10;47.10
12977;DHT22;6553;48.412;9.514;2023-03-04T08:02:41;19.00;46.90
12977;DHT22;6553;48.412;9.514;2023-03-04T08:05:07;19.00;46.90
12977;DHT22;6553;48.412;9.514;2023-03-04T08:07:34;19.10;47.00
12977;DHT22;6553;48.412;9.514;2023-03-04T08:09:59;19.10;47.10
12977;DHT22;6553;48.412;9.514;2023-03-04T08:12:25;19.10;47.10
12977;DHT22;6553;48.412;9.514;2023-03-04T08:14:52;19.10;47.10
12977;DHT22;6553;48.412;9.514;2023-03-04T08:17:18;19.10;47.10
12977;DHT22;6553;48.412;9.514;2023-03-04T08:19:44;19.10;47.10
12977;DHT22;6553;48.412;9.514;2023-03-04T08:22:10;19.10;47.10
12977;DHT22;6553;48.412;9.514;2023-03-04T08:24:36;19.10;47.20
12977;DHT22;6553;48.412;9.514;2023-03-04T08:27:02;19.10;47.10
12977;DHT22;6553;48.412;9.514;2023-03-04T08:29:28;19.10;47.20
12977;DHT22;6553;48.412;9.514;2023-03-04T08:31:54;19.10;47.20
12977;DHT22;6553;48.412;9.514;2023-03-04T08:34:22;19.10;47.20
12977;DHT22;6553;48.412;9.514;2023-03-04T08:36:50;19.10;47.20
12977;DHT22;6553;48.412;9.514;2023-03-04T08:39:17;19.10;47.20
12977;DHT22;6553;48.412;9.514;2023-03-04T08:41:43;19.10;47.20
12977;DHT22;6553;48.412;9.514;2023-03-04T08:44:10;19.10;47.30
12977;DHT22;6553;48.412;9.514;2023-03-04T08:46:37;19.20;47.40
12977;DHT22;6553;48.412;9.514;2023-03-04T08:49:05;19.20;47.40
12977;DHT22;6553;48.412;9.514;2023-03-04T08:51:31;19.20;47.40
12977;DHT22;6553;48.412;9.514;2023-03-04T08:54:00;19.20;47.40
12977;DHT22;6553;48.412;9.514;2023-03-04T08:56:29;19.20;47.40
12977;DHT22;6553;48.412;9.514;2023-03-04T08:58:55;19.20;47.40
12977;DHT22;6553;48.412;9.514;2023-03-04T09:01:21;19.20;47.40
12977;DHT22;6553;48.412;9.514;2023-03-04T09:03:46;19.10;47.40
12977;DHT22;6553;48.412;9.514;2023-03-04T09:06:16;19.10;47.40
12977;DHT22;6553;48.412;9.514;2023-03-04T09:08:43;19.20;47.40
12977;DHT22;6553;48.412;9.514;2023-03-04T09:11:10;19.20;47.50
12977;DHT22;6553;48.412;9.514;2023-03-04T09:13:37;19.20;47.50
12977;DHT22;6553;48.412;9.514;2023-03-04T09:16:07;19.20;47.50
12977;DHT22;6553;48.412;9.514;2023-03-04T09:18:34;19.20;47.50
12977;DHT22;6553;48.412;9.514;2023-03-04T09:21:00;19.20;47.50
12977;DHT22;6553;48.412;9.514;2023-03-04T09:23:25;19.20;47.50
12977;DHT22;6553;48.412;9.514;2023-03-04T09:25:51;19.20;47.50
12977;DHT22;6553;48.412;9.514;2023-03-04T09:28:18;19.20;47.50
12977;DHT22;6553;48.412;9.514;2023-03-04T09:30:44;19.20;47.50
12977;DHT22;6553;48.412;9.514;2023-03-04T09:33:11;19.20;47.50
12977;DHT22;6553;48.412;9.514;2023-03-04T09:35:38;19.20;47.50
12977;DHT22;6553;48.412;9.514;2023-03-04T09:38:04;19.20;47.50
12977;DHT22;6553;48.412;9.514;2023-03-04T09:40:42;19.20;47.50
12977;DHT22;6553;48.412;9.514;2023-03-04T09:43:21;19.20;47.50
12977;DHT22;6553;48.412;9.514;2023-03-04T09:45:56;19.20;47.50
12977;DHT22;6553;48.412;9.514;2023-03-04T09:48:33;19.20;47.50
12977;DHT22;6553;48.412;9.514;2023-03-04T09:51:19;19.30;47.60
12977;DHT22;6553;48.412;9.514;2023-03-04T09:56:50;19.20;47.50
12977;DHT22;6553;48.412;9.514;2023-03-04T09:59:51;19.30;47.60
12977;DHT22;6553;48.412;9.514;2023-03-04T10:06:01;19.20;47.60
12977;DHT22;6553;48.412;9.514;2023-03-04T10:11:34;19.30;47.70
12977;DHT22;6553;48.412;9.514;2023-03-04T10:14:20;19.30;47.80
12977;DHT22;6553;48.412;9.514;2023-03-04T10:17:07;19.20;47.70
12977;DHT22;6553;48.412;9.514;2023-03-04T10:19:51;19.20;47.80
12977;DHT22;6553;48.412;9.514;2023-03-04T10:22:34;19.20;47.80
12977;DHT22;6553;48.412;9.514;2023-03-04T10:25:15;19.30;47.70
12977;DHT22;6553;48.412;9.514;2023-03-04T10:27:43;19.20;47.70
12977;DHT22;6553;48.412;9.514;2023-03-04T10:33:27;19.30;47.80
12977;DHT22;6553;48.412;9.514;2023-03-04T10:38:35;19.30;47.80
12977;DHT22;6553;48.412;9.514;2023-03-04T10:41:12;19.30;47.80
12977;DHT22;6553;48.412;9.514;2023-03-04T10:43:49;19.30;47.80
12977;DHT22;6553;48.412;9.514;2023-03-04T10:46:25;19.30;47.80
12977;DHT22;6553;48.412;9.514;2023-03-04T10:48:52;19.30;47.90
12977;DHT22;6553;48.412;9.514;2023-03-04T10:51:21;19.30;47.80
12977;DHT22;6553;48.412;9.514;2023-03-04T10:56:59;19.20;47.80
12977;DHT22;6553;48.412;9.514;2023-03-04T10:59:41;19.30;47.90
12977;DHT22;6553;48.412;9.514;2023-03-04T11:07:35;19.20;47.80
12977;DHT22;6553;48.412;9.514;2023-03-04T11:10:25;19.20;47.90
12977;DHT22;6553;48.412;9.514;2023-03-04T11:16:02;19.30;47.90
12977;DHT22;6553;48.412;9.514;2023-03-04T11:18:49;19.20;47.90
12977;DHT22;6553;48.412;9.514;2023-03-04T11:21:23;19.30;47.90
12977;DHT22;6553;48.412;9.514;2023-03-04T11:23:58;19.30;47.90
12977;DHT22;6553;48.412;9.514;2023-03-04T11:26:42;19.30;47.90
12977;DHT22;6553;48.412;9.514;2023-03-04T11:29:23;19.20;47.80
12977;DHT22;6553;48.412;9.514;2023-03-04T11:31:57;19.20;47.90
12977;DHT22;6553;48.412;9.514;2023-03-04T11:37:52;19.30;47.90
12977;DHT22;6553;48.412;9.514;2023-03-04T11:40:43;19.30;48.00
12977;DHT22;6553;48.412;9.514;2023-03-04T11:43:16;19.20;48.40
12977;DHT22;6553;48.412;9.514;2023-03-04T12:26:54;19.20;48.00
12977;DHT22;6553;48.412;9.514;2023-03-04T12:34:58;19.20;47.90
12977;DHT22;6553;48.412;9.514;2023-03-04T12:44:17;19.30;47.50
12977;DHT22;6553;48.412;9.514;2023-03-04T12:47:12;19.20;47.50
12977;DHT22;6553;48.412;9.514;2023-03-04T12:49:54;19.30;47.60
12977;DHT22;6553;48.412;9.514;2023-03-04T12:53:08;19.20;47.50
12977;DHT22;6553;48.412;9.514;2023-03-04T12:55:43;19.20;47.40
12977;DHT22;6553;48.412;9.514;2023-03-04T12:58:17;19.30;47.60
12977;DHT22;6553;48.412;9.514;2023-03-04T13:12:20;19.30;47.60
12977;DHT22;6553;48.412;9.514;2023-03-04T13:22:57;19.30;47.60
12977;DHT22;6553;48.412;9.514;2023-03-04T13:28:35;19.30;47.60
12977;DHT22;6553;48.412;9.514;2023-03-04T13:31:20;19.20;47.50
12977;DHT22;6553;48.412;9.514;2023-03-04T13:33:55;19.30;47.60
12977;DHT22;6553;48.412;9.514;2023-03-04T13:36:31;19.30;47.60
12977;DHT22;6553;48.412;9.514;2023-03-04T13:41:52;19.30;47.40
12977;DHT22;6553;48.412;9.514;2023-03-04T13:44:56;19.30;47.50
12977;DHT22;6553;48.412;9.514;2023-03-04T13:47:31;19.20;47.50
12977;DHT22;6553;48.412;9.514;2023-03-04T13:50:45;19.30;47.50
12977;DHT22;6553;48.412;9.514;2023-03-04T13:53:39;19.30;48.00
12977;DHT22;6553;48.412;9.514;2023-03-04T13:56:20;19.20;47.50
12977;DHT22;6553;48.412;9.514;2023-03-04T13:58:51;19.20;47.50
12977;DHT22;6553;48.412;9.514;2023-03-04T14:01:29;19.20;47.50
12977;DHT22;6553;48.412;9.514;2023-03-04T14:03:58;19.20;47.50
12977;DHT22;6553;48.412;9.514;2023-03-04T14:06:27;19.20;47.50
12977;DHT22;6553;48.412;9.514;2023-03-04T14:08:55;19.20;47.40
12977;DHT22;6553;48.412;9.514;2023-03-04T14:11:55;19.20;47.50
12977;DHT22;6553;48.412;9.514;2023-03-04T14:17:19;19.30;47.40
12977;DHT22;6553;48.412;9.514;2023-03-04T14:19:49;19.30;47.60
12977;DHT22;6553;48.412;9.514;2023-03-04T14:22:27;19.30;47.50
12977;DHT22;6553;48.412;9.514;2023-03-04T14:27:34;19.30;47.60
12977;DHT22;6553;48.412;9.514;2023-03-04T14:30:25;19.30;47.60
12977;DHT22;6553;48.412;9.514;2023-03-04T14:32:52;19.30;47.50
12977;DHT22;6553;48.412;9.514;2023-03-04T14:35:29;19.30;47.50
12977;DHT22;6553;48.412;9.514;2023-03-04T14:38:03;19.30;47.40
12977;DHT22;6553;48.412;9.514;2023-03-04T14:40:57;19.30;47.50
12977;DHT22;6553;48.412;9.514;2023-03-04T14:43:28;19.30;47.50
12977;DHT22;6553;48.412;9.514;2023-03-04T14:45:58;19.30;47.40
12977;DHT22;6553;48.412;9.514;2023-03-04T14:48:30;19.30;47.50
12977;DHT22;6553;48.412;9.514;2023-03-04T14:50:59;19.30;47.60
12977;DHT22;6553;48.412;9.514;2023-03-04T14:53:27;19.30;47.50
12977;DHT22;6553;48.412;9.514;2023-03-04T14:55:58;19.30;47.40
12977;DHT22;6553;48.412;9.514;2023-03-04T14:58:38;19.30;47.40
12977;DHT22;6553;48.412;9.514;2023-03-04T15:01:20;19.30;47.40
12977;DHT22;6553;48.412;9.514;2023-03-04T15:04:02;19.30;47.50
12977;DHT22;6553;48.412;9.514;2023-03-04T15:06:33;19.30;47.40
12977;DHT22;6553;48.412;9.514;2023-03-04T15:09:06;19.30;47.60
12977;DHT22;6553;48.412;9.514;2023-03-04T15:11:51;19.30;47.40
12977;DHT22;6553;48.412;9.514;2023-03-04T15:14:52;19.20;47.30
12977;DHT22;6553;48.412;9.514;2023-03-04T15:17:31;19.20;47.20
12977;DHT22;6553;48.412;9.514;2023-03-04T15:23:13;19.30;47.50
12977;DHT22;6553;48.412;9.514;2023-03-04T15:25:22;19.20;47.30
12977;DHT22;6553;48.412;9.514;2023-03-04T15:27:49;19.20;47.30
12977;DHT22;6553;48.412;9.514;2023-03-04T15:30:22;19.20;47.40
12977;DHT22;6553;48.412;9.514;2023-03-04T15:32:53;19.20;47.40
12977;DHT22;6553;48.412;9.514;2023-03-04T15:35:19;19.20;47.40
12977;DHT22;6553;48.412;9.514;2023-03-04T15:37:47;19.20;47.30
12977;DHT22;6553;48.412;9.514;2023-03-04T15:40:37;19.20;47.30
12977;DHT22;6553;48.412;9.514;2023-03-04T15:43:05;19.20;47.30
12977;DHT22;6553;48.412;9.514;2023-03-04T15:45:36;19.20;47.30
12977;DHT22;6553;48.412;9.514;2023-03-04T15:48:08;19.20;47.30
12977;DHT22;6553;48.412;9.514;2023-03-04T15:50:46;19.20;47.30
12977;DHT22;6553;48.412;9.514;2023-03-04T15:53:34;19.20;47.40
12977;DHT22;6553;48.412;9.514;2023-03-04T15:56:04;19.20;47.50
12977;DHT22;6553;48.412;9.514;2023-03-04T15:58:33;19.20;47.40
12977;DHT22;6553;48.412;9.514;2023-03-04T16:00:59;19.20;47.30
12977;DHT22;6553;48.412;9.514;2023-03-04T16:03:25;19.20;47.40
12977;DHT22;6553;48.412;9.514;2023-03-04T16:05:51;19.20;47.50
12977;DHT22;6553;48.412;9.514;2023-03-04T16:08:20;19.20;47.30
12977;DHT22;6553;48.412;9.514;2023-03-04T16:10:46;19.20;47.30
12977;DHT22;6553;48.412;9.514;2023-03-04T16:13:17;19.20;47.40
12977;DHT22;6553;48.412;9.514;2023-03-04T16:15:48;19.20;47.40
12977;DHT22;6553;48.412;9.514;2023-03-04T16:18:15;19.20;47.30
12977;DHT22;6553;48.412;9.514;2023-03-04T16:20:47;19.20;47.40
12977;DHT22;6553;48.412;9.514;2023-03-04T16:23:17;19.20;47.40
12977;DHT22;6553;48.412;9.514;2023-03-04T16:25:47;19.20;47.40
12977;DHT22;6553;48.412;9.514;2023-03-04T16:28:15;19.20;47.40
12977;DHT22;6553;48.412;9.514;2023-03-04T16:30:41;19.10;47.40
12977;DHT22;6553;48.412;9.514;2023-03-04T16:33:07;19.20;47.40
12977;DHT22;6553;48.412;9.514;2023-03-04T16:35:35;19.20;47.50
12977;DHT22;6553;48.412;9.514;2023-03-04T16:38:01;19.20;47.50
12977;DHT22;6553;48.412;9.514;2023-03-04T16:40:29;19.10;47.40
12977;DHT22;6553;48.412;9.514;2023-03-04T16:42:55;19.20;47.50
12977;DHT22;6553;48.412;9.514;2023-03-04T16:45:24;19.20;47.50
12977;DHT22;6553;48.412;9.514;2023-03-04T16:47:52;19.20;47.40
12977;DHT22;6553;48.412;9.514;2023-03-04T16:50:20;19.20;47.40
12977;DHT22;6553;48.412;9.514;2023-03-04T16:52:52;19.20;47.40
12977;DHT22;6553;48.412;9.514;2023-03-04T16:55:22;19.10;47.40
12977;DHT22;6553;48.412;9.514;2023-03-04T16:57:50;19.20;47.40
12977;DHT22;6553;48.412;9.514;2023-03-04T17:00:19;19.20;47.40
12977;DHT22;6553;48.412;9.514;2023-03-04T17:02:52;19.10;47.40
12977;DHT22;6553;48.412;9.514;2023-03-04T17:05:22;19.10;47.40
12977;DHT22;6553;48.412;9.514;2023-03-04T17:07:49;19.10;47.40
12977;DHT22;6553;48.412;9.514;2023-03-04T17:10:16;19.10;47.40
12977;DHT22;6553;48.412;9.514;2023-03-04T17:12:42;19.10;47.50
12977;DHT22;6553;48.412;9.514;2023-03-04T17:15:12;19.10;47.40
12977;DHT22;6553;48.412;9.514;2023-03-04T17:17:39;19.10;47.50
12977;DHT22;6553;48.412;9.514;2023-03-04T17:20:08;19.10;47.50
12977;DHT22;6553;48.412;9.514;2023-03-04T17:22:37;19.10;47.50
12977;DHT22;6553;48.412;9.514;2023-03-04T17:25:03;19.10;47.40
12977;DHT22;6553;48.412;9.514;2023-03-04T17:27:29;19.10;47.40
12977;DHT22;6553;48.412;9.514;2023-03-04T17:29:55;19.10;47.40
12977;DHT22;6553;48.412;9.514;2023-03-04T17:32:21;19.10;47.40
12977;DHT22;6553;48.412;9.514;2023-03-04T17:34:47;19.10;47.40
12977;DHT22;6553;48.412;9.514;2023-03-04T17:37:13;19.10;47.40
12977;DHT22;6553;48.412;9.514;2023-03-04T17:39:40;19.10;47.50
12977;DHT22;6553;48.412;9.514;2023-03-04T17:42:06;19.10;47.50
12977;DHT22;6553;48.412;9.514;2023-03-04T17:44:32;19.10;47.50
12977;DHT22;6553;48.412;9.514;2023-03-04T17:46:57;19.10;47.50
12977;DHT22;6553;48.412;9.514;2023-03-04T17:49:24;19.10;47.50
12977;DHT22;6553;48.412;9.514;2023-03-04T17:51:50;19.10;47.50
12977;DHT22;6553;48.412;9.514;2023-03-04T17:54:17;19.10;47.50
12977;DHT22;6553;48.412;9.514;2023-03-04T17:56:43;19.10;47.60
12977;DHT22;6553;48.412;9.514;2023-03-04T17:59:13;19.10;47.50
12977;DHT22;6553;48.412;9.514;2023-03-04T18:01:40;19.10;47.60